sensor_id;sensor_type;location;lat;lon;timestamp;P1;durP1;ratioP1;P2;durP2;ratioP2
68993;SDS011;56054;50.968;5.816;2022-07-06T00:02:03;5.60;;;2.10;;
68993;SDS011;56054;50.968;5.816;2022-07-06T00:05:11;3.85;;;1.60;;
68993;SDS011;56054;50.968;5.816;2022-07-06T00:08:21;6.47;;;1.88;;
68993;SDS011;56054;50.968;5.816;2022-07-06T00:19:41;8.25;;;1.73;;
68993;SDS011;56054;50.968;5.816;2022-07-06T00:22:57;4.93;;;1.52;;
68993;SDS011;56054;50.968;5.816;2022-07-06T00:26:04;6.95;;;1.70;;
68993;SDS011;56054;50.968;5.816;2022-07-06T00:29:11;4.82;;;1.70;;
68993;SDS011;56054;50.968;5.816;2022-07-06T00:32:18;6.55;;;2.00;;
68993;SDS011;56054;50.968;5.816;2022-07-06T00:35:25;10.77;;;1.45;;
68993;SDS011;56054;50.968;5.816;2022-07-06T00:38:32;6.70;;;1.60;;
68993;SDS011;56054;50.968;5.816;2022-07-06T00:41:39;5.38;;;1.75;;
68993;SDS011;56054;50.968;5.816;2022-07-06T00:44:46;3.90;;;1.83;;
68993;SDS011;56054;50.968;5.816;2022-07-06T00:48:08;6.20;;;1.70;;
68993;SDS011;56054;50.968;5.816;2022-07-06T00:51:22;5.18;;;1.65;;
68993;SDS011;56054;50.968;5.816;2022-07-06T00:54:36;6.47;;;1.88;;
68993;SDS011;56054;50.968;5.816;2022-07-06T00:57:43;7.45;;;1.85;;
68993;SDS011;56054;50.968;5.816;2022-07-06T01:00:50;5.40;;;2.05;;
68993;SDS011;56054;50.968;5.816;2022-07-06T01:04:02;4.13;;;1.50;;
68993;SDS011;56054;50.968;5.816;2022-07-06T01:07:12;3.03;;;1.83;;
68993;SDS011;56054;50.968;5.816;2022-07-06T01:10:20;4.70;;;2.10;;
68993;SDS011;56054;50.968;5.816;2022-07-06T01:13:28;4.22;;;1.98;;
68993;SDS011;56054;50.968;5.816;2022-07-06T01:16:37;6.47;;;1.95;;
68993;SDS011;56054;50.968;5.816;2022-07-06T01:19:44;7.50;;;1.95;;
68993;SDS011;56054;50.968;5.816;2022-07-06T01:23:17;5.03;;;2.42;;
68993;SDS011;56054;50.968;5.816;2022-07-06T01:26:26;2.85;;;1.50;;
68993;SDS011;56054;50.968;5.816;2022-07-06T01:29:36;11.25;;;2.15;;
68993;SDS011;56054;50.968;5.816;2022-07-06T01:32:47;3.08;;;1.90;;
68993;SDS011;56054;50.968;5.816;2022-07-06T01:35:54;3.17;;;1.90;;
68993;SDS011;56054;50.968;5.816;2022-07-06T01:39:01;2.88;;;1.60;;
68993;SDS011;56054;50.968;5.816;2022-07-06T01:42:10;7.25;;;2.30;;
68993;SDS011;56054;50.968;5.816;2022-07-06T01:45:19;5.47;;;2.40;;
68993;SDS011;56054;50.968;5.816;2022-07-06T01:48:26;7.07;;;2.35;;
68993;SDS011;56054;50.968;5.816;2022-07-06T01:51:33;7.25;;;2.50;;
68993;SDS011;56054;50.968;5.816;2022-07-06T01:54:40;8.40;;;2.65;;
68993;SDS011;56054;50.968;5.816;2022-07-06T01:57:47;9.00;;;2.80;;
68993;SDS011;56054;50.968;5.816;2022-07-06T02:00:56;11.52;;;3.00;;
68993;SDS011;56054;50.968;5.816;2022-07-06T02:04:03;8.88;;;2.78;;
68993;SDS011;56054;50.968;5.816;2022-07-06T02:07:17;15.13;;;3.30;;
68993;SDS011;56054;50.968;5.816;2022-07-06T02:10:24;8.50;;;3.78;;
68993;SDS011;56054;50.968;5.816;2022-07-06T02:13:57;14.52;;;4.00;;
68993;SDS011;56054;50.968;5.816;2022-07-06T02:17:04;14.68;;;5.05;;
68993;SDS011;56054;50.968;5.816;2022-07-06T02:20:37;19.88;;;5.55;;
68993;SDS011;56054;50.968;5.816;2022-07-06T02:23:44;16.35;;;4.90;;
68993;SDS011;56054;50.968;5.816;2022-07-06T02:26:51;21.52;;;5.30;;
68993;SDS011;56054;50.968;5.816;2022-07-06T02:30:02;15.00;;;5.90;;
68993;SDS011;56054;50.968;5.816;2022-07-06T02:33:11;16.88;;;4.78;;
68993;SDS011;56054;50.968;5.816;2022-07-06T02:36:19;17.00;;;4.72;;
68993;SDS011;56054;50.968;5.816;2022-07-06T02:39:26;14.20;;;4.15;;
68993;SDS011;56054;50.968;5.816;2022-07-06T02:42:38;10.85;;;3.53;;
68993;SDS011;56054;50.968;5.816;2022-07-06T02:45:46;7.32;;;3.40;;
68993;SDS011;56054;50.968;5.816;2022-07-06T02:48:54;6.75;;;3.15;;
68993;SDS011;56054;50.968;5.816;2022-07-06T02:52:01;6.90;;;3.40;;
68993;SDS011;56054;50.968;5.816;2022-07-06T02:55:09;7.30;;;3.22;;
68993;SDS011;56054;50.968;5.816;2022-07-06T02:58:16;9.13;;;3.17;;
68993;SDS011;56054;50.968;5.816;2022-07-06T03:01:23;6.80;;;3.30;;
68993;SDS011;56054;50.968;5.816;2022-07-06T03:04:31;7.15;;;3.40;;
68993;SDS011;56054;50.968;5.816;2022-07-06T03:07:48;7.20;;;3.00;;
68993;SDS011;56054;50.968;5.816;2022-07-06T03:10:57;6.68;;;3.45;;
68993;SDS011;56054;50.968;5.816;2022-07-06T03:14:04;9.55;;;3.72;;
68993;SDS011;56054;50.968;5.816;2022-07-06T03:17:15;6.75;;;3.40;;
68993;SDS011;56054;50.968;5.816;2022-07-06T03:20:27;8.45;;;3.45;;
68993;SDS011;56054;50.968;5.816;2022-07-06T03:23:36;6.85;;;3.25;;
68993;SDS011;56054;50.968;5.816;2022-07-06T03:26:43;9.65;;;3.60;;
68993;SDS011;56054;50.968;5.816;2022-07-06T03:29:51;5.57;;;3.50;;
68993;SDS011;56054;50.968;5.816;2022-07-06T03:33:26;6.93;;;3.47;;
68993;SDS011;56054;50.968;5.816;2022-07-06T03:36:37;4.53;;;3.22;;
68993;SDS011;56054;50.968;5.816;2022-07-06T03:39:46;11.80;;;4.28;;
68993;SDS011;56054;50.968;5.816;2022-07-06T03:42:53;6.65;;;3.95;;
68993;SDS011;56054;50.968;5.816;2022-07-06T03:46:03;8.82;;;3.60;;
68993;SDS011;56054;50.968;5.816;2022-07-06T03:49:10;6.53;;;3.45;;
68993;SDS011;56054;50.968;5.816;2022-07-06T03:52:25;6.47;;;3.25;;
68993;SDS011;56054;50.968;5.816;2022-07-06T03:55:33;11.55;;;3.78;;
68993;SDS011;56054;50.968;5.816;2022-07-06T03:58:46;14.73;;;4.10;;
68993;SDS011;56054;50.968;5.816;2022-07-06T04:01:56;9.85;;;4.30;;
68993;SDS011;56054;50.968;5.816;2022-07-06T04:05:04;8.82;;;4.20;;
68993;SDS011;56054;50.968;5.816;2022-07-06T04:08:11;9.77;;;4.43;;
68993;SDS011;56054;50.968;5.816;2022-07-06T04:11:33;9.18;;;3.78;;
68993;SDS011;56054;50.968;5.816;2022-07-06T04:14:40;8.38;;;3.72;;
68993;SDS011;56054;50.968;5.816;2022-07-06T04:17:47;12.95;;;4.22;;
68993;SDS011;56054;50.968;5.816;2022-07-06T04:21:13;9.73;;;4.15;;
68993;SDS011;56054;50.968;5.816;2022-07-06T04:24:21;10.82;;;3.63;;
68993;SDS011;56054;50.968;5.816;2022-07-06T04:27:28;13.00;;;4.03;;
68993;SDS011;56054;50.968;5.816;2022-07-06T04:30:41;14.43;;;3.88;;
68993;SDS011;56054;50.968;5.816;2022-07-06T04:33:57;15.13;;;4.20;;
68993;SDS011;56054;50.968;5.816;2022-07-06T04:37:04;12.13;;;3.92;;
68993;SDS011;56054;50.968;5.816;2022-07-06T04:40:11;11.93;;;4.50;;
68993;SDS011;56054;50.968;5.816;2022-07-06T04:43:24;11.30;;;4.05;;
68993;SDS011;56054;50.968;5.816;2022-07-06T04:46:36;12.77;;;4.03;;
68993;SDS011;56054;50.968;5.816;2022-07-06T04:49:43;12.52;;;5.45;;
68993;SDS011;56054;50.968;5.816;2022-07-06T04:52:51;8.00;;;3.33;;
68993;SDS011;56054;50.968;5.816;2022-07-06T04:56:02;9.00;;;3.45;;
68993;SDS011;56054;50.968;5.816;2022-07-06T04:59:16;6.72;;;3.20;;
68993;SDS011;56054;50.968;5.816;2022-07-06T05:02:23;11.48;;;2.90;;
68993;SDS011;56054;50.968;5.816;2022-07-06T05:05:32;11.63;;;3.42;;
68993;SDS011;56054;50.968;5.816;2022-07-06T05:08:51;17.20;;;3.05;;
68993;SDS011;56054;50.968;5.816;2022-07-06T05:11:59;6.82;;;2.67;;
68993;SDS011;56054;50.968;5.816;2022-07-06T05:15:07;4.70;;;2.47;;
68993;SDS011;56054;50.968;5.816;2022-07-06T05:18:16;12.35;;;2.25;;
68993;SDS011;56054;50.968;5.816;2022-07-06T05:21:32;9.32;;;2.88;;
68993;SDS011;56054;50.968;5.816;2022-07-06T05:24:41;12.38;;;2.65;;
68993;SDS011;56054;50.968;5.816;2022-07-06T05:28:14;8.82;;;2.40;;
68993;SDS011;56054;50.968;5.816;2022-07-06T05:31:22;4.70;;;1.77;;
68993;SDS011;56054;50.968;5.816;2022-07-06T05:34:31;6.45;;;2.50;;
68993;SDS011;56054;50.968;5.816;2022-07-06T05:37:39;10.32;;;2.53;;
68993;SDS011;56054;50.968;5.816;2022-07-06T05:40:46;12.25;;;2.95;;
68993;SDS011;56054;50.968;5.816;2022-07-06T05:43:53;12.75;;;2.83;;
68993;SDS011;56054;50.968;5.816;2022-07-06T05:47:02;12.75;;;2.90;;
68993;SDS011;56054;50.968;5.816;2022-07-06T05:50:35;13.43;;;3.80;;
68993;SDS011;56054;50.968;5.816;2022-07-06T05:53:46;10.10;;;2.88;;
68993;SDS011;56054;50.968;5.816;2022-07-06T05:56:57;6.32;;;2.78;;
68993;SDS011;56054;50.968;5.816;2022-07-06T06:00:05;12.27;;;2.35;;
68993;SDS011;56054;50.968;5.816;2022-07-06T06:03:27;11.23;;;3.33;;
68993;SDS011;56054;50.968;5.816;2022-07-06T06:06:37;11.10;;;2.72;;
68993;SDS011;56054;50.968;5.816;2022-07-06T06:09:44;8.25;;;2.22;;
68993;SDS011;56054;50.968;5.816;2022-07-06T06:12:51;8.82;;;1.85;;
68993;SDS011;56054;50.968;5.816;2022-07-06T06:15:58;5.10;;;1.73;;
68993;SDS011;56054;50.968;5.816;2022-07-06T06:22:53;8.13;;;2.00;;
68993;SDS011;56054;50.968;5.816;2022-07-06T06:26:01;9.73;;;1.83;;
68993;SDS011;56054;50.968;5.816;2022-07-06T06:29:08;7.97;;;1.98;;
68993;SDS011;56054;50.968;5.816;2022-07-06T06:32:15;7.60;;;2.20;;
68993;SDS011;56054;50.968;5.816;2022-07-06T06:35:22;8.20;;;1.88;;
68993;SDS011;56054;50.968;5.816;2022-07-06T06:38:29;4.78;;;1.52;;
68993;SDS011;56054;50.968;5.816;2022-07-06T06:41:36;12.07;;;2.38;;
68993;SDS011;56054;50.968;5.816;2022-07-06T06:44:43;8.75;;;1.48;;
68993;SDS011;56054;50.968;5.816;2022-07-06T06:47:50;6.72;;;1.95;;
68993;SDS011;56054;50.968;5.816;2022-07-06T06:50:57;5.05;;;1.10;;
68993;SDS011;56054;50.968;5.816;2022-07-06T06:54:11;7.90;;;1.75;;
68993;SDS011;56054;50.968;5.816;2022-07-06T06:57:18;3.55;;;1.40;;
68993;SDS011;56054;50.968;5.816;2022-07-06T07:00:25;4.57;;;1.80;;
68993;SDS011;56054;50.968;5.816;2022-07-06T07:03:32;3.70;;;1.20;;
68993;SDS011;56054;50.968;5.816;2022-07-06T07:06:39;3.33;;;1.00;;
68993;SDS011;56054;50.968;5.816;2022-07-06T07:09:58;4.47;;;1.15;;
68993;SDS011;56054;50.968;5.816;2022-07-06T07:13:06;2.75;;;1.00;;
68993;SDS011;56054;50.968;5.816;2022-07-06T07:16:13;4.00;;;0.68;;
68993;SDS011;56054;50.968;5.816;2022-07-06T07:19:46;1.50;;;0.55;;
68993;SDS011;56054;50.968;5.816;2022-07-06T07:22:53;2.80;;;0.60;;
68993;SDS011;56054;50.968;5.816;2022-07-06T07:26:00;2.17;;;0.80;;
68993;SDS011;56054;50.968;5.816;2022-07-06T07:29:07;1.23;;;0.68;;
68993;SDS011;56054;50.968;5.816;2022-07-06T07:32:14;2.55;;;0.70;;
68993;SDS011;56054;50.968;5.816;2022-07-06T07:35:21;3.97;;;0.40;;
68993;SDS011;56054;50.968;5.816;2022-07-06T07:38:29;7.05;;;0.85;;
68993;SDS011;56054;50.968;5.816;2022-07-06T07:41:36;1.83;;;0.60;;
68993;SDS011;56054;50.968;5.816;2022-07-06T07:44:43;0.68;;;0.35;;
68993;SDS011;56054;50.968;5.816;2022-07-06T07:47:50;3.35;;;0.73;;
68993;SDS011;56054;50.968;5.816;2022-07-06T07:50:57;2.78;;;0.70;;
68993;SDS011;56054;50.968;5.816;2022-07-06T07:54:07;2.05;;;0.38;;
68993;SDS011;56054;50.968;5.816;2022-07-06T07:57:14;3.10;;;0.55;;
68993;SDS011;56054;50.968;5.816;2022-07-06T08:00:26;3.72;;;1.00;;
68993;SDS011;56054;50.968;5.816;2022-07-06T08:03:34;1.90;;;0.90;;
68993;SDS011;56054;50.968;5.816;2022-07-06T08:06:41;2.25;;;0.50;;
68993;SDS011;56054;50.968;5.816;2022-07-06T08:09:48;2.38;;;0.93;;
68993;SDS011;56054;50.968;5.816;2022-07-06T08:12:55;2.38;;;0.43;;
68993;SDS011;56054;50.968;5.816;2022-07-06T08:16:02;1.10;;;0.38;;
68993;SDS011;56054;50.968;5.816;2022-07-06T08:19:09;2.90;;;0.75;;
68993;SDS011;56054;50.968;5.816;2022-07-06T08:22:16;3.00;;;0.65;;
68993;SDS011;56054;50.968;5.816;2022-07-06T08:25:32;3.00;;;0.75;;
68993;SDS011;56054;50.968;5.816;2022-07-06T08:28:39;4.93;;;0.77;;
68993;SDS011;56054;50.968;5.816;2022-07-06T08:31:46;2.63;;;0.60;;
68993;SDS011;56054;50.968;5.816;2022-07-06T08:35:02;5.90;;;1.67;;
68993;SDS011;56054;50.968;5.816;2022-07-06T08:38:09;0.75;;;0.32;;
68993;SDS011;56054;50.968;5.816;2022-07-06T08:41:17;2.10;;;0.40;;
68993;SDS011;56054;50.968;5.816;2022-07-06T08:44:24;1.98;;;0.43;;
68993;SDS011;56054;50.968;5.816;2022-07-06T08:47:32;0.65;;;0.30;;
68993;SDS011;56054;50.968;5.816;2022-07-06T08:50:44;1.48;;;0.50;;
68993;SDS011;56054;50.968;5.816;2022-07-06T08:53:52;0.82;;;0.30;;
68993;SDS011;56054;50.968;5.816;2022-07-06T08:57:02;2.28;;;0.55;;
68993;SDS011;56054;50.968;5.816;2022-07-06T09:00:09;3.97;;;0.50;;
68993;SDS011;56054;50.968;5.816;2022-07-06T09:03:21;2.17;;;0.40;;
68993;SDS011;56054;50.968;5.816;2022-07-06T09:06:29;1.85;;;0.43;;
68993;SDS011;56054;50.968;5.816;2022-07-06T09:09:38;2.33;;;0.60;;
68993;SDS011;56054;50.968;5.816;2022-07-06T09:12:46;5.18;;;0.60;;
68993;SDS011;56054;50.968;5.816;2022-07-06T09:16:08;2.25;;;0.38;;
68993;SDS011;56054;50.968;5.816;2022-07-06T09:19:21;1.63;;;0.60;;
68993;SDS011;56054;50.968;5.816;2022-07-06T09:22:29;2.40;;;0.38;;
68993;SDS011;56054;50.968;5.816;2022-07-06T09:25:37;7.53;;;0.68;;
68993;SDS011;56054;50.968;5.816;2022-07-06T09:28:46;2.72;;;0.45;;
68993;SDS011;56054;50.968;5.816;2022-07-06T09:31:59;0.85;;;0.47;;
68993;SDS011;56054;50.968;5.816;2022-07-06T09:35:25;0.60;;;0.50;;
68993;SDS011;56054;50.968;5.816;2022-07-06T09:38:34;4.22;;;0.55;;
68993;SDS011;56054;50.968;5.816;2022-07-06T09:41:41;1.40;;;0.50;;
68993;SDS011;56054;50.968;5.816;2022-07-06T09:44:48;1.08;;;0.32;;
68993;SDS011;56054;50.968;5.816;2022-07-06T09:47:55;1.38;;;0.52;;
68993;SDS011;56054;50.968;5.816;2022-07-06T09:51:02;2.17;;;0.40;;
68993;SDS011;56054;50.968;5.816;2022-07-06T09:54:09;1.70;;;0.35;;
68993;SDS011;56054;50.968;5.816;2022-07-06T09:57:16;4.15;;;0.70;;
68993;SDS011;56054;50.968;5.816;2022-07-06T10:00:32;2.03;;;0.45;;
68993;SDS011;56054;50.968;5.816;2022-07-06T10:03:39;1.23;;;0.43;;
68993;SDS011;56054;50.968;5.816;2022-07-06T10:06:51;2.70;;;0.80;;
68993;SDS011;56054;50.968;5.816;2022-07-06T10:09:59;2.35;;;0.40;;
68993;SDS011;56054;50.968;5.816;2022-07-06T10:13:11;0.38;;;0.38;;
68993;SDS011;56054;50.968;5.816;2022-07-06T10:16:24;2.47;;;0.65;;
68993;SDS011;56054;50.968;5.816;2022-07-06T10:19:32;1.60;;;0.55;;
68993;SDS011;56054;50.968;5.816;2022-07-06T10:22:39;3.88;;;0.60;;
68993;SDS011;56054;50.968;5.816;2022-07-06T10:25:46;5.07;;;0.60;;
68993;SDS011;56054;50.968;5.816;2022-07-06T10:28:57;1.63;;;0.60;;
68993;SDS011;56054;50.968;5.816;2022-07-06T10:32:05;1.42;;;0.40;;
68993;SDS011;56054;50.968;5.816;2022-07-06T10:35:18;1.85;;;0.40;;
68993;SDS011;56054;50.968;5.816;2022-07-06T10:38:52;2.70;;;0.60;;
68993;SDS011;56054;50.968;5.816;2022-07-06T10:41:59;1.65;;;0.25;;
68993;SDS011;56054;50.968;5.816;2022-07-06T10:45:06;1.80;;;0.40;;
68993;SDS011;56054;50.968;5.816;2022-07-06T10:48:17;2.90;;;0.65;;
68993;SDS011;56054;50.968;5.816;2022-07-06T10:51:28;3.22;;;0.50;;
68993;SDS011;56054;50.968;5.816;2022-07-06T10:54:39;0.98;;;0.40;;
68993;SDS011;56054;50.968;5.816;2022-07-06T10:57:52;1.23;;;0.40;;
68993;SDS011;56054;50.968;5.816;2022-07-06T11:01:03;3.42;;;0.77;;
68993;SDS011;56054;50.968;5.816;2022-07-06T11:04:31;3.47;;;0.52;;
68993;SDS011;56054;50.968;5.816;2022-07-06T11:07:50;2.85;;;0.40;;
68993;SDS011;56054;50.968;5.816;2022-07-06T11:11:16;5.07;;;0.68;;
68993;SDS011;56054;50.968;5.816;2022-07-06T11:14:23;1.58;;;0.50;;
68993;SDS011;56054;50.968;5.816;2022-07-06T11:17:31;1.60;;;0.50;;
68993;SDS011;56054;50.968;5.816;2022-07-06T11:20:41;4.68;;;0.60;;
68993;SDS011;56054;50.968;5.816;2022-07-06T11:23:51;2.58;;;0.60;;
68993;SDS011;56054;50.968;5.816;2022-07-06T11:26:58;3.05;;;0.60;;
68993;SDS011;56054;50.968;5.816;2022-07-06T11:30:32;1.40;;;0.45;;
68993;SDS011;56054;50.968;5.816;2022-07-06T11:33:49;1.65;;;0.50;;
68993;SDS011;56054;50.968;5.816;2022-07-06T11:37:22;1.00;;;0.50;;
68993;SDS011;56054;50.968;5.816;2022-07-06T11:40:29;1.90;;;0.60;;
68993;SDS011;56054;50.968;5.816;2022-07-06T11:43:36;1.95;;;0.43;;
68993;SDS011;56054;50.968;5.816;2022-07-06T11:50:37;1.63;;;0.70;;
68993;SDS011;56054;50.968;5.816;2022-07-06T11:53:46;2.28;;;0.45;;
68993;SDS011;56054;50.968;5.816;2022-07-06T11:57:01;1.77;;;0.47;;
68993;SDS011;56054;50.968;5.816;2022-07-06T12:00:09;1.13;;;0.70;;
68993;SDS011;56054;50.968;5.816;2022-07-06T12:03:27;3.78;;;0.40;;
68993;SDS011;56054;50.968;5.816;2022-07-06T12:07:05;1.52;;;0.70;;
68993;SDS011;56054;50.968;5.816;2022-07-06T12:19:24;1.23;;;0.43;;
68993;SDS011;56054;50.968;5.816;2022-07-06T12:22:31;1.52;;;0.60;;
68993;SDS011;56054;50.968;5.816;2022-07-06T12:29:28;2.80;;;0.50;;
68993;SDS011;56054;50.968;5.816;2022-07-06T12:32:42;3.88;;;0.50;;
68993;SDS011;56054;50.968;5.816;2022-07-06T12:36:15;2.00;;;0.40;;
68993;SDS011;56054;50.968;5.816;2022-07-06T12:39:25;5.30;;;0.98;;
68993;SDS011;56054;50.968;5.816;2022-07-06T12:42:47;1.80;;;0.50;;
68993;SDS011;56054;50.968;5.816;2022-07-06T12:47:09;1.40;;;0.40;;
68993;SDS011;56054;50.968;5.816;2022-07-06T12:59:58;1.60;;;0.50;;
68993;SDS011;56054;50.968;5.816;2022-07-06T13:11:09;3.55;;;1.85;;
68993;SDS011;56054;50.968;5.816;2022-07-06T13:14:28;5.28;;;0.50;;
68993;SDS011;56054;50.968;5.816;2022-07-06T13:18:50;4.18;;;0.88;;
68993;SDS011;56054;50.968;5.816;2022-07-06T13:22:13;1.20;;;0.40;;
68993;SDS011;56054;50.968;5.816;2022-07-06T13:26:37;2.15;;;0.60;;
68993;SDS011;56054;50.968;5.816;2022-07-06T13:30:27;1.42;;;0.60;;
68993;SDS011;56054;50.968;5.816;2022-07-06T13:33:41;5.70;;;0.60;;
68993;SDS011;56054;50.968;5.816;2022-07-06T13:37:37;2.25;;;0.40;;
68993;SDS011;56054;50.968;5.816;2022-07-06T13:41:40;5.03;;;0.70;;
68993;SDS011;56054;50.968;5.816;2022-07-06T13:53:16;2.85;;;0.90;;
68993;SDS011;56054;50.968;5.816;2022-07-06T14:01:11;2.70;;;0.80;;
68993;SDS011;56054;50.968;5.816;2022-07-06T14:21:37;1.30;;;0.52;;
68993;SDS011;56054;50.968;5.816;2022-07-06T14:24:46;1.73;;;0.60;;
68993;SDS011;56054;50.968;5.816;2022-07-06T14:28:03;1.55;;;0.80;;
68993;SDS011;56054;50.968;5.816;2022-07-06T14:31:12;4.45;;;0.75;;
68993;SDS011;56054;50.968;5.816;2022-07-06T14:34:53;2.72;;;0.70;;
68993;SDS011;56054;50.968;5.816;2022-07-06T14:38:09;4.13;;;0.75;;
68993;SDS011;56054;50.968;5.816;2022-07-06T14:50:05;2.88;;;0.80;;
68993;SDS011;56054;50.968;5.816;2022-07-06T14:53:32;7.43;;;1.08;;
68993;SDS011;56054;50.968;5.816;2022-07-06T15:02:07;2.58;;;1.02;;
68993;SDS011;56054;50.968;5.816;2022-07-06T15:19:01;2.05;;;1.05;;
68993;SDS011;56054;50.968;5.816;2022-07-06T15:22:33;4.18;;;0.98;;
68993;SDS011;56054;50.968;5.816;2022-07-06T15:25:40;6.15;;;1.25;;
68993;SDS011;56054;50.968;5.816;2022-07-06T15:28:53;1.67;;;0.80;;
68993;SDS011;56054;50.968;5.816;2022-07-06T15:32:25;2.50;;;1.00;;
68993;SDS011;56054;50.968;5.816;2022-07-06T15:35:37;5.60;;;1.13;;
68993;SDS011;56054;50.968;5.816;2022-07-06T15:38:46;2.25;;;0.90;;
68993;SDS011;56054;50.968;5.816;2022-07-06T15:41:56;5.28;;;1.02;;
68993;SDS011;56054;50.968;5.816;2022-07-06T15:45:06;5.65;;;1.58;;
68993;SDS011;56054;50.968;5.816;2022-07-06T15:48:17;5.55;;;1.48;;
68993;SDS011;56054;50.968;5.816;2022-07-06T15:51:27;7.50;;;1.30;;
68993;SDS011;56054;50.968;5.816;2022-07-06T15:55:18;5.32;;;1.33;;
68993;SDS011;56054;50.968;5.816;2022-07-06T15:59:01;3.67;;;1.05;;
68993;SDS011;56054;50.968;5.816;2022-07-06T16:02:11;5.70;;;1.27;;
68993;SDS011;56054;50.968;5.816;2022-07-06T16:05:45;12.90;;;1.13;;
68993;SDS011;56054;50.968;5.816;2022-07-06T16:09:37;3.60;;;1.00;;
68993;SDS011;56054;50.968;5.816;2022-07-06T16:13:10;5.25;;;0.98;;
68993;SDS011;56054;50.968;5.816;2022-07-06T16:16:22;4.93;;;1.33;;
68993;SDS011;56054;50.968;5.816;2022-07-06T16:20:19;3.00;;;0.85;;
68993;SDS011;56054;50.968;5.816;2022-07-06T16:23:29;2.88;;;1.13;;
68993;SDS011;56054;50.968;5.816;2022-07-06T16:27:04;7.45;;;1.15;;
68993;SDS011;56054;50.968;5.816;2022-07-06T16:30:22;5.97;;;1.38;;
68993;SDS011;56054;50.968;5.816;2022-07-06T16:33:28;5.50;;;1.00;;
68993;SDS011;56054;50.968;5.816;2022-07-06T16:36:36;3.28;;;1.20;;
68993;SDS011;56054;50.968;5.816;2022-07-06T16:40:19;4.22;;;1.23;;
68993;SDS011;56054;50.968;5.816;2022-07-06T16:43:32;2.22;;;1.40;;
68993;SDS011;56054;50.968;5.816;2022-07-06T16:54:47;6.47;;;1.70;;
68993;SDS011;56054;50.968;5.816;2022-07-06T16:57:54;3.47;;;1.60;;
68993;SDS011;56054;50.968;5.816;2022-07-06T17:01:07;5.60;;;1.42;;
68993;SDS011;56054;50.968;5.816;2022-07-06T17:04:13;5.65;;;1.80;;
68993;SDS011;56054;50.968;5.816;2022-07-06T17:07:20;4.53;;;1.70;;
68993;SDS011;56054;50.968;5.816;2022-07-06T17:10:27;6.10;;;2.20;;
68993;SDS011;56054;50.968;5.816;2022-07-06T17:13:34;4.15;;;1.73;;
68993;SDS011;56054;50.968;5.816;2022-07-06T17:17:07;3.50;;;1.30;;
68993;SDS011;56054;50.968;5.816;2022-07-06T17:20:17;2.63;;;1.20;;
68993;SDS011;56054;50.968;5.816;2022-07-06T17:23:28;3.45;;;1.23;;
68993;SDS011;56054;50.968;5.816;2022-07-06T17:26:41;8.48;;;1.73;;
68993;SDS011;56054;50.968;5.816;2022-07-06T17:29:49;4.18;;;1.05;;
68993;SDS011;56054;50.968;5.816;2022-07-06T17:33:02;8.20;;;1.98;;
68993;SDS011;56054;50.968;5.816;2022-07-06T17:36:16;3.97;;;1.50;;
68993;SDS011;56054;50.968;5.816;2022-07-06T17:39:52;3.88;;;1.30;;
68993;SDS011;56054;50.968;5.816;2022-07-06T17:42:59;5.38;;;2.05;;
68993;SDS011;56054;50.968;5.816;2022-07-06T17:58:39;7.47;;;1.45;;
68993;SDS011;56054;50.968;5.816;2022-07-06T18:02:21;4.43;;;1.60;;
68993;SDS011;56054;50.968;5.816;2022-07-06T18:06:34;7.40;;;1.38;;
68993;SDS011;56054;50.968;5.816;2022-07-06T18:22:29;4.10;;;1.80;;
68993;SDS011;56054;50.968;5.816;2022-07-06T18:35:27;8.30;;;1.70;;
68993;SDS011;56054;50.968;5.816;2022-07-06T18:38:37;8.27;;;2.30;;
68993;SDS011;56054;50.968;5.816;2022-07-06T18:41:47;6.88;;;2.10;;
68993;SDS011;56054;50.968;5.816;2022-07-06T18:44:57;7.88;;;2.58;;
68993;SDS011;56054;50.968;5.816;2022-07-06T18:48:07;5.13;;;2.17;;
68993;SDS011;56054;50.968;5.816;2022-07-06T18:51:14;2.53;;;1.63;;
68993;SDS011;56054;50.968;5.816;2022-07-06T18:54:47;5.32;;;2.30;;
68993;SDS011;56054;50.968;5.816;2022-07-06T18:58:07;5.25;;;2.08;;
68993;SDS011;56054;50.968;5.816;2022-07-06T19:05:37;6.75;;;2.33;;
68993;SDS011;56054;50.968;5.816;2022-07-06T19:17:27;7.88;;;2.50;;
68993;SDS011;56054;50.968;5.816;2022-07-06T19:20:42;4.57;;;2.40;;
68993;SDS011;56054;50.968;5.816;2022-07-06T19:24:08;7.65;;;2.15;;
68993;SDS011;56054;50.968;5.816;2022-07-06T20:41:07;8.00;;;3.70;;
68993;SDS011;56054;50.968;5.816;2022-07-06T20:52:37;6.50;;;3.08;;
68993;SDS011;56054;50.968;5.816;2022-07-06T20:59:57;14.35;;;3.25;;
68993;SDS011;56054;50.968;5.816;2022-07-06T21:11:02;9.35;;;2.28;;
68993;SDS011;56054;50.968;5.816;2022-07-06T21:14:18;6.03;;;2.15;;
68993;SDS011;56054;50.968;5.816;2022-07-06T21:17:31;10.50;;;2.33;;
68993;SDS011;56054;50.968;5.816;2022-07-06T21:20:57;10.85;;;3.28;;
68993;SDS011;56054;50.968;5.816;2022-07-06T21:24:19;4.05;;;1.85;;
68993;SDS011;56054;50.968;5.816;2022-07-06T21:27:27;4.68;;;2.20;;
68993;SDS011;56054;50.968;5.816;2022-07-06T21:42:53;7.25;;;1.70;;
68993;SDS011;56054;50.968;5.816;2022-07-06T21:49:31;10.13;;;2.72;;
68993;SDS011;56054;50.968;5.816;2022-07-06T21:52:38;4.45;;;1.83;;
68993;SDS011;56054;50.968;5.816;2022-07-06T22:00:04;7.90;;;2.35;;
68993;SDS011;56054;50.968;5.816;2022-07-06T22:03:17;5.97;;;2.85;;
68993;SDS011;56054;50.968;5.816;2022-07-06T22:07:25;7.47;;;2.53;;
68993;SDS011;56054;50.968;5.816;2022-07-06T22:10:37;6.18;;;2.70;;
68993;SDS011;56054;50.968;5.816;2022-07-06T22:13:57;4.68;;;2.20;;
68993;SDS011;56054;50.968;5.816;2022-07-06T22:17:08;3.67;;;2.50;;
68993;SDS011;56054;50.968;5.816;2022-07-06T22:20:23;5.32;;;2.70;;
68993;SDS011;56054;50.968;5.816;2022-07-06T22:23:38;8.68;;;2.60;;
68993;SDS011;56054;50.968;5.816;2022-07-06T22:26:58;5.78;;;2.10;;
68993;SDS011;56054;50.968;5.816;2022-07-06T22:30:18;3.42;;;1.98;;
68993;SDS011;56054;50.968;5.816;2022-07-06T22:33:57;6.65;;;1.90;;
68993;SDS011;56054;50.968;5.816;2022-07-06T22:37:32;3.45;;;1.92;;
68993;SDS011;56054;50.968;5.816;2022-07-06T22:41:07;12.82;;;2.42;;
68993;SDS011;56054;50.968;5.816;2022-07-06T22:59:03;4.13;;;1.98;;
68993;SDS011;56054;50.968;5.816;2022-07-06T23:03:14;5.22;;;1.50;;
68993;SDS011;56054;50.968;5.816;2022-07-06T23:52:41;6.10;;;1.48;;
